Lincoln, New Mexico
Current Conditions -  °F | °C
As of 6:35 AM on Monday 20 Oct 2014 (Local Time) from KSRR Reporting Station
Broken Clouds Broken Clouds  
Wind Chill: 46°   Ceiling: 12000
Heat Index: 46°   Visibility: 10mi
Dew Point: 46°   Wind: 0mph
Humidity: 100%   Direction: NA
Pressure: 30.23"   Gusts: NA
Location:  33.49°N, 105.39°W
Report Text: KSRR 201235Z AUTO 00000KT 10SM BKN120 08/08 A3023 RMK AO2
Loading
Personal Weather Stations






























Interactive Weather Map
Tropical Storm Tracking
New forecast layout! Learn more

10-Day Weather Forecast

Advertisements
Track Severe Weather on mobile